createdAt,value
2019-01-10T00:02:11.635Z,97275.43
2019-01-10T00:07:14.867Z,97270.66
2019-01-10T00:12:18.113Z,97279.73
2019-01-10T00:17:21.324Z,97284.58
2019-01-10T00:22:24.715Z,97295.19
2019-01-10T00:27:27.938Z,97299.05
2019-01-10T00:32:31.232Z,97307.11
2019-01-10T00:37:34.440Z,97314.83
2019-01-10T00:42:37.639Z,97323.28
2019-01-10T00:47:40.882Z,97319.86
2019-01-10T00:52:44.101Z,97321.61
2019-01-10T00:57:47.370Z,97329.33
2019-01-10T01:02:50.595Z,97339.54
2019-01-10T01:07:53.813Z,97340.45
2019-01-10T01:12:58.788Z,97339.19
2019-01-10T01:18:00.411Z,97348.27
2019-01-10T01:23:03.653Z,97347.43
2019-01-10T01:28:08.565Z,97363.53
2019-01-10T01:33:11.889Z,97363.23
2019-01-10T01:38:15.104Z,97364.50
2019-01-10T01:43:18.400Z,97372.61
2019-01-10T01:48:21.643Z,97376.94
2019-01-10T01:53:24.861Z,97378.65
2019-01-10T01:58:28.258Z,97383.84
2019-01-10T02:03:31.466Z,97373.16
2019-01-10T02:08:34.764Z,97389.05
2019-01-10T02:13:37.997Z,97401.84
2019-01-10T02:18:41.229Z,97405.23
2019-01-10T02:23:44.440Z,97408.72
2019-01-10T02:28:47.665Z,97410.00
2019-01-10T02:33:51.016Z,97408.23
2019-01-10T02:38:54.248Z,97417.27
2019-01-10T02:43:57.485Z,97420.67
2019-01-10T02:49:00.868Z,97425.81
2019-01-10T02:54:04.083Z,97418.84
2019-01-10T02:59:07.368Z,97422.20
2019-01-10T03:04:10.608Z,97428.73
2019-01-10T03:09:13.941Z,97427.45
2019-01-10T03:14:17.135Z,97424.70
2019-01-10T03:19:20.347Z,97426.05
2019-01-10T03:24:23.679Z,97421.38
2019-01-10T03:29:26.886Z,97428.67
2019-01-10T03:34:30.086Z,97428.16
2019-01-10T03:39:33.297Z,97431.02
2019-01-10T03:44:36.530Z,97436.09
2019-01-10T03:49:39.944Z,97429.66
2019-01-10T03:54:43.325Z,97427.98
2019-01-10T03:59:46.536Z,97432.67
2019-01-10T04:04:49.870Z,97436.09
2019-01-10T04:09:53.287Z,97446.53
2019-01-10T04:14:56.495Z,97445.75
2019-01-10T04:19:59.823Z,97449.14
2019-01-10T04:25:03.244Z,97452.96
2019-01-10T04:30:08.459Z,97460.98
2019-01-10T04:35:11.693Z,97458.84
2019-01-10T04:40:17.174Z,97465.69
2019-01-10T04:45:20.379Z,97469.95
2019-01-10T04:50:23.640Z,97476.85
2019-01-10T04:55:26.952Z,97481.92
2019-01-10T05:00:30.202Z,97490.48
2019-01-10T05:05:33.496Z,97502.14
2019-01-10T05:10:36.695Z,97508.55
2019-01-10T05:15:40.007Z,97521.42
2019-01-10T05:20:43.216Z,97519.69
2019-01-10T05:25:46.442Z,97528.70
2019-01-10T05:30:49.645Z,97534.23
2019-01-10T05:35:52.948Z,97534.66
2019-01-10T05:40:56.162Z,97534.66
2019-01-10T05:45:59.363Z,97546.25
2019-01-10T05:51:02.674Z,97543.16
2019-01-10T05:56:15.046Z,97546.28
2019-01-10T06:01:09.418Z,97546.64
2019-01-10T06:06:12.643Z,97551.39
2019-01-10T06:11:15.860Z,97559.88
2019-01-10T06:16:19.172Z,97567.95
2019-01-10T06:21:22.392Z,97574.83
2019-01-10T06:26:25.595Z,97584.25
2019-01-10T06:31:28.828Z,97589.83
2019-01-10T06:36:32.219Z,97602.70
2019-01-10T06:41:35.526Z,97607.47
2019-01-10T06:46:38.783Z,97622.93
2019-01-10T06:51:42.083Z,97631.41
2019-01-10T06:56:45.359Z,97646.46
2019-01-10T07:01:48.668Z,97653.34
2019-01-10T07:06:51.945Z,97656.76
2019-01-10T07:11:55.331Z,97669.17
2019-01-10T07:16:58.746Z,97675.16
2019-01-10T07:22:01.974Z,97683.78
2019-01-10T07:27:05.378Z,97683.31
2019-01-10T07:32:08.815Z,97694.01
2019-01-10T07:37:13.049Z,97703.86
2019-01-10T07:42:15.508Z,97695.19
2019-01-10T07:47:18.799Z,97707.11
2019-01-10T07:52:22.050Z,97710.03
2019-01-10T07:57:25.321Z,97721.97
2019-01-10T08:02:28.683Z,97726.59
2019-01-10T08:07:31.911Z,97736.80
2019-01-10T08:12:35.185Z,97738.02
2019-01-10T08:17:38.427Z,97750.83
2019-01-10T08:22:41.659Z,97755.44
2019-01-10T08:27:44.987Z,97759.39
2019-01-10T08:32:48.207Z,97770.66
2019-01-10T08:37:51.420Z,97766.38
2019-01-10T08:42:54.757Z,97774.63
2019-01-10T08:47:58.069Z,97777.22
2019-01-10T08:53:01.416Z,97784.98
2019-01-10T08:58:04.675Z,97790.23
2019-01-10T09:03:07.895Z,97790.26
2019-01-10T09:08:11.306Z,97796.22
2019-01-10T09:13:14.621Z,97789.78
2019-01-10T09:18:17.988Z,97800.40
2019-01-10T09:23:21.429Z,97805.59
2019-01-10T09:28:24.646Z,97808.55
2019-01-10T09:33:27.966Z,97814.11
2019-01-10T09:38:31.391Z,97832.49
2019-01-10T09:43:34.857Z,97833.69
2019-01-10T09:48:38.266Z,97832.88
2019-01-10T09:53:41.562Z,97842.27
2019-01-10T09:58:45.091Z,97839.61
2019-01-10T10:03:48.423Z,97837.85
2019-01-10T10:08:51.852Z,97836.94
2019-01-10T10:13:55.301Z,97836.34
2019-01-10T10:18:58.683Z,97840.95
2019-01-10T10:24:01.937Z,97840.10
2019-01-10T10:29:05.385Z,97853.77
2019-01-10T10:34:08.605Z,97855.34
2019-01-10T10:39:11.944Z,97847.30
2019-01-10T10:44:15.377Z,97851.66
2019-01-10T10:49:18.644Z,97851.83
2019-01-10T10:54:22.043Z,97853.80
2019-01-10T10:59:25.235Z,97861.70
2019-01-10T11:04:28.522Z,97852.74
2019-01-10T11:09:31.813Z,97857.93
2019-01-10T11:14:35.061Z,97866.55
2019-01-10T11:19:39.367Z,97869.23
2019-01-10T11:24:42.829Z,97867.36
2019-01-10T11:29:46.155Z,97870.33
2019-01-10T11:34:49.484Z,97864.71
2019-01-10T11:39:52.820Z,97856.78
2019-01-10T11:44:56.040Z,97849.05
2019-01-10T11:49:59.271Z,97856.61
2019-01-10T11:55:02.487Z,97857.90
2019-01-10T12:00:10.407Z,97855.61
2019-01-10T12:05:12.038Z,97860.13
2019-01-10T12:10:15.424Z,97863.52
2019-01-10T12:15:18.653Z,97856.57
2019-01-10T12:20:21.902Z,97858.38
2019-01-10T12:25:25.272Z,97858.45
2019-01-10T12:30:28.511Z,97858.55
2019-01-10T12:35:31.936Z,97858.16
2019-01-10T12:40:35.143Z,97854.02
2019-01-10T12:45:38.438Z,97854.19
2019-01-10T12:50:41.699Z,97859.84
2019-01-10T12:55:45.055Z,97868.20
2019-01-10T13:00:48.327Z,97874.73
2019-01-10T13:05:51.670Z,97879.35
2019-01-10T13:10:54.965Z,97879.62
2019-01-10T13:15:58.282Z,97890.17
2019-01-10T13:21:01.617Z,97893.27
2019-01-10T13:26:04.912Z,97896.69
2019-01-10T13:31:08.326Z,97900.19
2019-01-10T13:36:11.727Z,97910.03
2019-01-10T13:41:15.048Z,97915.55
2019-01-10T13:46:18.518Z,97921.45
2019-01-10T13:51:21.936Z,97933.67
2019-01-10T13:56:25.279Z,97933.91
2019-01-10T14:01:28.515Z,97947.07
2019-01-10T14:06:31.792Z,97955.31
2019-01-10T14:11:35.186Z,97956.53
2019-01-10T14:16:38.554Z,97963.56
2019-01-10T14:21:46.562Z,97978.24
2019-01-10T14:26:45.393Z,97971.47
2019-01-10T14:31:49.147Z,97979.38
2019-01-10T14:36:52.625Z,97985.08
2019-01-10T14:41:55.984Z,97988.51
2019-01-10T14:46:59.281Z,97996.67
2019-01-10T14:52:02.749Z,98004.05
2019-01-10T14:57:06.084Z,98017.41
2019-01-10T15:02:09.571Z,98022.62
2019-01-10T15:07:12.616Z,98025.28
2019-01-10T15:12:15.988Z,98035.66
2019-01-10T15:17:19.224Z,98036.98
2019-01-10T15:22:22.679Z,98045.55
2019-01-10T15:27:25.986Z,98054.59
2019-01-10T15:32:29.291Z,98052.02
2019-01-10T15:37:32.644Z,98047.80
2019-01-10T15:42:35.959Z,98057.23
2019-01-10T15:47:39.250Z,98056.43
2019-01-10T15:52:42.597Z,98056.03
2019-01-10T15:57:45.991Z,98063.30
2019-01-10T16:02:49.317Z,98065.94
2019-01-10T16:07:52.765Z,98077.53
2019-01-10T16:12:56.104Z,98084.40
2019-01-10T16:17:59.394Z,98089.56
2019-01-10T16:23:02.751Z,98085.74
2019-01-10T16:28:06.065Z,98088.34
2019-01-10T16:33:11.446Z,98093.50
2019-01-10T16:38:14.793Z,98096.94
2019-01-10T16:43:18.175Z,98111.09
2019-01-10T16:48:21.530Z,98106.41
2019-01-10T16:53:24.980Z,98109.02
2019-01-10T16:58:28.303Z,98106.46
2019-01-10T17:03:31.672Z,98115.89
2019-01-10T17:08:35.083Z,98118.47
2019-01-10T17:13:38.438Z,98121.47
2019-01-10T17:18:41.887Z,98115.50
2019-01-10T17:23:45.552Z,98126.22
2019-01-10T17:28:48.560Z,98129.63
2019-01-10T17:33:51.920Z,98132.22
2019-01-10T17:38:55.267Z,98132.66
2019-01-10T17:43:58.655Z,98142.95
2019-01-10T17:49:02.018Z,98148.06
2019-01-10T17:54:05.383Z,98145.95
2019-01-10T17:59:08.787Z,98145.52
2019-01-10T18:04:12.214Z,98163.89
2019-01-10T18:09:15.570Z,98168.61
2019-01-10T18:14:18.936Z,98168.59
2019-01-10T18:19:22.271Z,98172.03
2019-01-10T18:24:25.654Z,98171.17
2019-01-10T18:29:32.869Z,98178.86
2019-01-10T18:34:32.581Z,98184.42
2019-01-10T18:39:36.019Z,98196.39
2019-01-10T18:44:39.371Z,98202.78
2019-01-10T18:49:44.024Z,98191.24
2019-01-10T18:54:46.488Z,98199.80
2019-01-10T18:59:50.015Z,98198.98
2019-01-10T19:04:53.390Z,98202.83
2019-01-10T19:09:56.753Z,98213.95
2019-01-10T19:15:00.231Z,98214.78
2019-01-10T19:20:03.544Z,98224.66
2019-01-10T19:25:07.206Z,98225.48
2019-01-10T19:30:13.487Z,98236.19
2019-01-10T19:35:16.807Z,98237.05
2019-01-10T19:40:20.430Z,98239.61
2019-01-10T19:45:23.930Z,98240.90
2019-01-10T19:50:27.549Z,98246.89
2019-01-10T19:55:30.900Z,98252.00
2019-01-10T20:00:37.995Z,98255.42
2019-01-10T20:05:41.319Z,98256.72
2019-01-10T20:10:44.835Z,98259.28
2019-01-10T20:15:48.183Z,98255.85
2019-01-10T20:20:51.719Z,98246.44
2019-01-10T20:25:55.068Z,98249.86
2019-01-10T20:30:58.407Z,98251.56
2019-01-10T20:36:01.907Z,98257.09
2019-01-10T20:41:05.263Z,98257.94
2019-01-10T20:46:08.648Z,98263.06
2019-01-10T20:51:11.963Z,98259.22
2019-01-10T20:56:15.316Z,98255.38
2019-01-10T21:01:18.892Z,98256.66
2019-01-10T21:06:22.231Z,98248.10
2019-01-10T21:11:25.550Z,98252.77
2019-01-10T21:16:29.013Z,98242.50
2019-01-10T21:21:32.366Z,98254.42
2019-01-10T21:26:35.692Z,98254.81
2019-01-10T21:31:38.957Z,98261.19
2019-01-10T21:36:42.320Z,98259.02
2019-01-10T21:41:45.655Z,98262.00
2019-01-10T21:46:48.934Z,98264.55
2019-01-10T21:51:52.259Z,98264.55
2019-01-10T21:56:55.591Z,98279.05
2019-01-10T22:01:58.903Z,98284.14
2019-01-10T22:07:02.203Z,98281.14
2019-01-10T22:12:05.690Z,98279.84
2019-01-10T22:17:08.943Z,98283.20
2019-01-10T22:22:12.219Z,98279.34
2019-01-10T22:27:15.467Z,98281.97
2019-01-10T22:32:18.718Z,98273.83
2019-01-10T22:37:21.950Z,98278.99
2019-01-10T22:42:25.336Z,98284.52
2019-01-10T22:47:28.571Z,98280.69
2019-01-10T22:52:31.804Z,98276.80
2019-01-10T22:57:35.117Z,98273.73
2019-01-10T23:02:38.377Z,98272.04
2019-01-10T23:07:41.809Z,98281.88
2019-01-10T23:12:45.032Z,98278.39
2019-01-10T23:17:51.499Z,98287.34
2019-01-10T23:23:00.772Z,98272.84
2019-01-10T23:28:04.004Z,98277.17
2019-01-10T23:33:07.364Z,98272.45
2019-01-10T23:38:10.624Z,98269.45
2019-01-10T23:43:13.844Z,98273.80
2019-01-10T23:48:17.091Z,98270.31
2019-01-10T23:53:20.361Z,98266.80
2019-01-10T23:58:23.579Z,98270.66
